Terminal Aerodrome Forecast
Issued by NWS

Home | Current Version | Previous Version | Graphics & Text | Print | Product List | Glossary On
Versions: 1 2 3 4 5 6 7 8 9 10 11 12 13 14 15 16 17 18 19
000
FTUS43 KGRB 270300 AAA
TAFATW
TAF AMD
KATW 270313Z 2703/2724 36012G15KT P6SM BKN040
     FM270500 35011KT P6SM SCT035
     FM271500 36011KT P6SM SCT035=

USA.gov is the U.S. government's official web portal to all federal, state and local government web resources and services.